Tanksley, Kentucky
Current Conditions -  °F | °C
As of 12:53 AM on Wednesday 22 Oct 2014 (Local Time) from KLOZ Reporting Station
Overcast Overcast  
Wind Chill: 50°   Ceiling: 4900
Heat Index: 50°   Visibility: 10mi
Dew Point: 41°   Wind: 5mph
Humidity: 71%   Direction: 20°NNE
Pressure: 30.13"   Gusts: NA
Location:  37.1101°N, 83.7537°W
Report Text: KLOZ 220453Z AUTO 02004KT 10SM OVC049 10/05 A3013 RMK AO2 SLP200 T01000050 401610067
Loading
Personal Weather Stations






























Interactive Weather Map
Tropical Storm Tracking
New forecast layout! Learn more

10-Day Weather Forecast

Advertisements
Track Severe Weather on mobile